sensor_id;sensor_type;location;lat;lon;timestamp;temperature;humidity
6252;DHT22;3159;52.414;9.784;2024-03-02T00:00:31;10.30;99.90
6252;DHT22;3159;52.414;9.784;2024-03-02T00:02:58;10.10;99.90
6252;DHT22;3159;52.414;9.784;2024-03-02T00:05:24;10.20;99.90
6252;DHT22;3159;52.414;9.784;2024-03-02T00:07:53;9.80;99.90
6252;DHT22;3159;52.414;9.784;2024-03-02T00:10:24;9.80;99.90
6252;DHT22;3159;52.414;9.784;2024-03-02T00:12:55;9.90;99.90
6252;DHT22;3159;52.414;9.784;2024-03-02T00:15:37;9.90;99.90
6252;DHT22;3159;52.414;9.784;2024-03-02T00:18:06;9.80;99.90
6252;DHT22;3159;52.414;9.784;2024-03-02T00:20:33;9.80;99.90
6252;DHT22;3159;52.414;9.784;2024-03-02T00:23:03;9.80;99.90
6252;DHT22;3159;52.414;9.784;2024-03-02T00:25:38;9.90;99.90
6252;DHT22;3159;52.414;9.784;2024-03-02T00:28:06;9.90;99.90
6252;DHT22;3159;52.414;9.784;2024-03-02T00:30:54;9.90;99.90
6252;DHT22;3159;52.414;9.784;2024-03-02T00:33:22;9.80;99.90
6252;DHT22;3159;52.414;9.784;2024-03-02T00:35:50;9.90;99.90
6252;DHT22;3159;52.414;9.784;2024-03-02T00:38:17;10.00;99.90
6252;DHT22;3159;52.414;9.784;2024-03-02T00:40:46;10.10;99.90
6252;DHT22;3159;52.414;9.784;2024-03-02T00:46:02;10.00;99.90
6252;DHT22;3159;52.414;9.784;2024-03-02T00:48:29;10.00;99.90
6252;DHT22;3159;52.414;9.784;2024-03-02T00:50:57;9.90;99.90
6252;DHT22;3159;52.414;9.784;2024-03-02T00:53:26;10.10;99.90
6252;DHT22;3159;52.414;9.784;2024-03-02T00:55:54;10.10;99.90
6252;DHT22;3159;52.414;9.784;2024-03-02T00:58:21;10.00;99.90
6252;DHT22;3159;52.414;9.784;2024-03-02T01:00:48;10.00;99.90
6252;DHT22;3159;52.414;9.784;2024-03-02T01:03:15;10.10;99.90
6252;DHT22;3159;52.414;9.784;2024-03-02T01:05:41;10.00;99.90
6252;DHT22;3159;52.414;9.784;2024-03-02T01:08:09;10.10;99.90
6252;DHT22;3159;52.414;9.784;2024-03-02T01:10:35;10.10;99.90
6252;DHT22;3159;52.414;9.784;2024-03-02T01:13:04;10.00;99.90
6252;DHT22;3159;52.414;9.784;2024-03-02T01:15:30;9.90;99.90
6252;DHT22;3159;52.414;9.784;2024-03-02T01:17:58;10.00;99.90
6252;DHT22;3159;52.414;9.784;2024-03-02T01:20:25;9.80;99.90
6252;DHT22;3159;52.414;9.784;2024-03-02T01:22:52;9.90;99.90
6252;DHT22;3159;52.414;9.784;2024-03-02T01:25:19;9.90;99.90
6252;DHT22;3159;52.414;9.784;2024-03-02T01:27:46;9.90;99.90
6252;DHT22;3159;52.414;9.784;2024-03-02T01:30:14;9.90;99.90
6252;DHT22;3159;52.414;9.784;2024-03-02T01:32:41;9.70;99.90
6252;DHT22;3159;52.414;9.784;2024-03-02T01:35:08;9.90;99.90
6252;DHT22;3159;52.414;9.784;2024-03-02T01:37:35;9.80;99.90
6252;DHT22;3159;52.414;9.784;2024-03-02T01:40:02;9.80;99.90
6252;DHT22;3159;52.414;9.784;2024-03-02T01:42:35;9.80;99.90
6252;DHT22;3159;52.414;9.784;2024-03-02T01:45:02;9.80;99.90
6252;DHT22;3159;52.414;9.784;2024-03-02T01:47:30;9.70;99.90
6252;DHT22;3159;52.414;9.784;2024-03-02T01:49:57;9.70;99.90
6252;DHT22;3159;52.414;9.784;2024-03-02T01:52:25;9.70;99.90
6252;DHT22;3159;52.414;9.784;2024-03-02T01:54:52;9.70;99.90
6252;DHT22;3159;52.414;9.784;2024-03-02T01:57:19;9.60;99.90
6252;DHT22;3159;52.414;9.784;2024-03-02T01:59:46;9.50;99.90
6252;DHT22;3159;52.414;9.784;2024-03-02T02:02:14;9.50;99.90
6252;DHT22;3159;52.414;9.784;2024-03-02T02:04:42;9.60;99.90
6252;DHT22;3159;52.414;9.784;2024-03-02T02:07:09;9.60;99.90
6252;DHT22;3159;52.414;9.784;2024-03-02T02:09:36;9.60;99.90
6252;DHT22;3159;52.414;9.784;2024-03-02T02:12:04;9.50;99.90
6252;DHT22;3159;52.414;9.784;2024-03-02T02:14:32;9.60;99.90
6252;DHT22;3159;52.414;9.784;2024-03-02T02:16:59;9.60;99.90
6252;DHT22;3159;52.414;9.784;2024-03-02T02:19:26;9.70;99.90
6252;DHT22;3159;52.414;9.784;2024-03-02T02:21:54;9.70;99.90
6252;DHT22;3159;52.414;9.784;2024-03-02T02:24:20;10.00;99.90
6252;DHT22;3159;52.414;9.784;2024-03-02T02:26:47;10.10;99.90
6252;DHT22;3159;52.414;9.784;2024-03-02T02:29:14;10.10;99.90
6252;DHT22;3159;52.414;9.784;2024-03-02T02:31:41;10.20;99.90
6252;DHT22;3159;52.414;9.784;2024-03-02T02:34:08;10.00;99.90
6252;DHT22;3159;52.414;9.784;2024-03-02T02:36:38;9.90;99.90
6252;DHT22;3159;52.414;9.784;2024-03-02T02:39:09;10.10;99.90
6252;DHT22;3159;52.414;9.784;2024-03-02T02:41:37;10.00;99.90
6252;DHT22;3159;52.414;9.784;2024-03-02T02:44:04;10.00;99.90
6252;DHT22;3159;52.414;9.784;2024-03-02T02:46:31;9.90;99.90
6252;DHT22;3159;52.414;9.784;2024-03-02T02:48:58;10.10;99.90
6252;DHT22;3159;52.414;9.784;2024-03-02T02:51:25;9.80;99.90
6252;DHT22;3159;52.414;9.784;2024-03-02T02:53:52;9.70;99.90
6252;DHT22;3159;52.414;9.784;2024-03-02T02:56:20;9.60;99.90
6252;DHT22;3159;52.414;9.784;2024-03-02T02:58:47;9.50;99.90
6252;DHT22;3159;52.414;9.784;2024-03-02T03:01:15;9.20;99.90
6252;DHT22;3159;52.414;9.784;2024-03-02T03:03:43;9.20;99.90
6252;DHT22;3159;52.414;9.784;2024-03-02T03:06:10;9.30;99.90
6252;DHT22;3159;52.414;9.784;2024-03-02T03:08:37;9.20;99.90
6252;DHT22;3159;52.414;9.784;2024-03-02T03:11:04;9.30;99.90
6252;DHT22;3159;52.414;9.784;2024-03-02T03:13:33;9.30;99.90
6252;DHT22;3159;52.414;9.784;2024-03-02T03:16:00;9.30;99.90
6252;DHT22;3159;52.414;9.784;2024-03-02T03:18:27;9.40;99.90
6252;DHT22;3159;52.414;9.784;2024-03-02T03:20:53;9.40;99.90
6252;DHT22;3159;52.414;9.784;2024-03-02T03:23:19;9.40;99.90
6252;DHT22;3159;52.414;9.784;2024-03-02T03:25:46;9.40;99.90
6252;DHT22;3159;52.414;9.784;2024-03-02T03:28:13;9.50;99.90
6252;DHT22;3159;52.414;9.784;2024-03-02T03:30:41;9.30;99.90
6252;DHT22;3159;52.414;9.784;2024-03-02T03:33:08;9.30;99.90
6252;DHT22;3159;52.414;9.784;2024-03-02T03:35:36;9.30;99.90
6252;DHT22;3159;52.414;9.784;2024-03-02T03:38:04;9.40;99.90
6252;DHT22;3159;52.414;9.784;2024-03-02T03:40:30;9.40;99.90
6252;DHT22;3159;52.414;9.784;2024-03-02T03:42:57;9.40;99.90
6252;DHT22;3159;52.414;9.784;2024-03-02T03:45:25;9.40;99.90
6252;DHT22;3159;52.414;9.784;2024-03-02T03:47:53;9.70;99.90
6252;DHT22;3159;52.414;9.784;2024-03-02T03:50:20;9.80;99.90
6252;DHT22;3159;52.414;9.784;2024-03-02T03:52:47;9.90;99.90
6252;DHT22;3159;52.414;9.784;2024-03-02T03:55:14;9.80;99.90
6252;DHT22;3159;52.414;9.784;2024-03-02T03:57:41;9.90;99.90
6252;DHT22;3159;52.414;9.784;2024-03-02T04:00:08;9.90;99.90
6252;DHT22;3159;52.414;9.784;2024-03-02T04:02:37;9.90;99.90
6252;DHT22;3159;52.414;9.784;2024-03-02T04:05:05;9.90;99.90
6252;DHT22;3159;52.414;9.784;2024-03-02T04:07:35;9.90;99.90
6252;DHT22;3159;52.414;9.784;2024-03-02T04:10:07;9.90;99.90
6252;DHT22;3159;52.414;9.784;2024-03-02T04:12:35;9.90;99.90
6252;DHT22;3159;52.414;9.784;2024-03-02T04:15:02;9.90;99.90
6252;DHT22;3159;52.414;9.784;2024-03-02T04:17:31;9.90;99.90
6252;DHT22;3159;52.414;9.784;2024-03-02T04:19:58;9.90;99.90
6252;DHT22;3159;52.414;9.784;2024-03-02T04:22:27;9.80;99.90
6252;DHT22;3159;52.414;9.784;2024-03-02T04:24:53;9.70;99.90
6252;DHT22;3159;52.414;9.784;2024-03-02T04:27:20;9.70;99.90
6252;DHT22;3159;52.414;9.784;2024-03-02T04:29:47;9.70;99.90
6252;DHT22;3159;52.414;9.784;2024-03-02T04:32:14;9.50;99.90
6252;DHT22;3159;52.414;9.784;2024-03-02T04:34:41;9.30;99.90
6252;DHT22;3159;52.414;9.784;2024-03-02T04:37:08;9.30;99.90
6252;DHT22;3159;52.414;9.784;2024-03-02T04:39:36;9.20;99.90
6252;DHT22;3159;52.414;9.784;2024-03-02T04:42:03;9.10;99.90
6252;DHT22;3159;52.414;9.784;2024-03-02T04:44:30;8.90;99.90
6252;DHT22;3159;52.414;9.784;2024-03-02T04:46:56;8.80;99.90
6252;DHT22;3159;52.414;9.784;2024-03-02T04:49:23;9.00;99.90
6252;DHT22;3159;52.414;9.784;2024-03-02T04:51:50;9.10;99.90
6252;DHT22;3159;52.414;9.784;2024-03-02T04:54:17;9.00;99.90
6252;DHT22;3159;52.414;9.784;2024-03-02T04:56:45;9.10;99.90
6252;DHT22;3159;52.414;9.784;2024-03-02T04:59:15;9.10;99.90
6252;DHT22;3159;52.414;9.784;2024-03-02T05:01:42;9.20;99.90
6252;DHT22;3159;52.414;9.784;2024-03-02T05:04:09;9.20;99.90
6252;DHT22;3159;52.414;9.784;2024-03-02T05:06:37;9.00;99.90
6252;DHT22;3159;52.414;9.784;2024-03-02T05:09:05;8.90;99.90
6252;DHT22;3159;52.414;9.784;2024-03-02T05:11:32;9.00;99.90
6252;DHT22;3159;52.414;9.784;2024-03-02T05:14:32;8.80;99.90
6252;DHT22;3159;52.414;9.784;2024-03-02T05:16:59;8.60;99.90
6252;DHT22;3159;52.414;9.784;2024-03-02T05:19:26;8.50;99.90
6252;DHT22;3159;52.414;9.784;2024-03-02T05:21:53;8.40;99.90
6252;DHT22;3159;52.414;9.784;2024-03-02T05:24:20;8.40;99.90
6252;DHT22;3159;52.414;9.784;2024-03-02T05:26:46;8.40;99.90
6252;DHT22;3159;52.414;9.784;2024-03-02T05:29:13;8.30;99.90
6252;DHT22;3159;52.414;9.784;2024-03-02T05:31:41;8.40;99.90
6252;DHT22;3159;52.414;9.784;2024-03-02T05:34:08;8.30;99.90
6252;DHT22;3159;52.414;9.784;2024-03-02T05:36:35;8.40;99.90
6252;DHT22;3159;52.414;9.784;2024-03-02T05:39:04;8.40;99.90
6252;DHT22;3159;52.414;9.784;2024-03-02T05:41:34;8.40;99.90
6252;DHT22;3159;52.414;9.784;2024-03-02T05:44:01;8.20;99.90
6252;DHT22;3159;52.414;9.784;2024-03-02T05:46:28;8.30;99.90
6252;DHT22;3159;52.414;9.784;2024-03-02T05:48:56;8.30;99.90
6252;DHT22;3159;52.414;9.784;2024-03-02T05:51:23;8.20;99.90
6252;DHT22;3159;52.414;9.784;2024-03-02T05:53:50;8.20;99.90
6252;DHT22;3159;52.414;9.784;2024-03-02T05:56:16;8.20;99.90
6252;DHT22;3159;52.414;9.784;2024-03-02T05:58:43;8.20;99.90
6252;DHT22;3159;52.414;9.784;2024-03-02T06:01:23;8.10;99.90
6252;DHT22;3159;52.414;9.784;2024-03-02T06:03:55;8.20;99.90
6252;DHT22;3159;52.414;9.784;2024-03-02T06:06:22;8.10;99.90
6252;DHT22;3159;52.414;9.784;2024-03-02T06:08:49;8.10;99.90
6252;DHT22;3159;52.414;9.784;2024-03-02T06:11:16;8.00;99.90
6252;DHT22;3159;52.414;9.784;2024-03-02T06:13:43;8.00;99.90
6252;DHT22;3159;52.414;9.784;2024-03-02T06:16:09;8.10;99.90
6252;DHT22;3159;52.414;9.784;2024-03-02T06:18:36;8.10;99.90
6252;DHT22;3159;52.414;9.784;2024-03-02T06:21:04;8.10;99.90
6252;DHT22;3159;52.414;9.784;2024-03-02T06:23:31;8.10;99.90
6252;DHT22;3159;52.414;9.784;2024-03-02T06:25:58;8.00;99.90
6252;DHT22;3159;52.414;9.784;2024-03-02T06:28:25;8.20;99.90
6252;DHT22;3159;52.414;9.784;2024-03-02T06:30:52;8.20;99.90
6252;DHT22;3159;52.414;9.784;2024-03-02T06:33:19;8.30;99.90
6252;DHT22;3159;52.414;9.784;2024-03-02T06:35:46;8.30;99.90
6252;DHT22;3159;52.414;9.784;2024-03-02T06:38:16;8.20;99.90
6252;DHT22;3159;52.414;9.784;2024-03-02T06:40:42;8.20;99.90
6252;DHT22;3159;52.414;9.784;2024-03-02T06:43:09;8.20;99.90
6252;DHT22;3159;52.414;9.784;2024-03-02T06:45:36;8.20;99.90
6252;DHT22;3159;52.414;9.784;2024-03-02T06:48:03;8.30;99.90
6252;DHT22;3159;52.414;9.784;2024-03-02T06:50:30;8.20;99.90
6252;DHT22;3159;52.414;9.784;2024-03-02T06:52:57;8.20;99.90
6252;DHT22;3159;52.414;9.784;2024-03-02T06:55:25;8.20;99.90
6252;DHT22;3159;52.414;9.784;2024-03-02T06:57:52;8.30;99.90
6252;DHT22;3159;52.414;9.784;2024-03-02T07:00:19;8.50;99.90
6252;DHT22;3159;52.414;9.784;2024-03-02T07:02:46;8.40;99.90
6252;DHT22;3159;52.414;9.784;2024-03-02T07:05:13;8.30;99.90
6252;DHT22;3159;52.414;9.784;2024-03-02T07:07:40;8.30;99.90
6252;DHT22;3159;52.414;9.784;2024-03-02T07:10:07;8.40;99.90
6252;DHT22;3159;52.414;9.784;2024-03-02T07:12:35;8.60;99.90
6252;DHT22;3159;52.414;9.784;2024-03-02T07:15:02;8.60;99.90
6252;DHT22;3159;52.414;9.784;2024-03-02T07:17:50;8.50;99.90
6252;DHT22;3159;52.414;9.784;2024-03-02T07:20:17;8.60;99.90
6252;DHT22;3159;52.414;9.784;2024-03-02T07:22:44;8.70;99.90
6252;DHT22;3159;52.414;9.784;2024-03-02T07:25:11;9.10;99.90
6252;DHT22;3159;52.414;9.784;2024-03-02T07:27:39;9.10;99.90
6252;DHT22;3159;52.414;9.784;2024-03-02T07:30:07;9.00;99.90
6252;DHT22;3159;52.414;9.784;2024-03-02T07:32:34;9.10;99.90
6252;DHT22;3159;52.414;9.784;2024-03-02T07:35:00;9.20;99.90
6252;DHT22;3159;52.414;9.784;2024-03-02T07:37:29;9.30;99.90
6252;DHT22;3159;52.414;9.784;2024-03-02T07:39:56;9.50;99.90
6252;DHT22;3159;52.414;9.784;2024-03-02T07:42:23;9.80;99.90
6252;DHT22;3159;52.414;9.784;2024-03-02T07:44:51;9.70;99.90
6252;DHT22;3159;52.414;9.784;2024-03-02T07:47:18;9.90;99.90
6252;DHT22;3159;52.414;9.784;2024-03-02T07:49:45;9.80;99.90
6252;DHT22;3159;52.414;9.784;2024-03-02T07:52:12;10.00;99.90
6252;DHT22;3159;52.414;9.784;2024-03-02T07:54:39;10.00;99.90
6252;DHT22;3159;52.414;9.784;2024-03-02T07:57:06;9.90;99.90
6252;DHT22;3159;52.414;9.784;2024-03-02T07:59:34;10.00;99.90
6252;DHT22;3159;52.414;9.784;2024-03-02T08:02:02;10.00;99.90
6252;DHT22;3159;52.414;9.784;2024-03-02T08:04:29;9.90;99.90
6252;DHT22;3159;52.414;9.784;2024-03-02T08:06:56;9.90;99.90
6252;DHT22;3159;52.414;9.784;2024-03-02T08:09:23;9.90;99.90
6252;DHT22;3159;52.414;9.784;2024-03-02T08:11:50;10.00;99.90
6252;DHT22;3159;52.414;9.784;2024-03-02T08:14:17;10.00;99.90
6252;DHT22;3159;52.414;9.784;2024-03-02T08:16:43;10.00;99.90
6252;DHT22;3159;52.414;9.784;2024-03-02T08:19:12;10.10;99.90
6252;DHT22;3159;52.414;9.784;2024-03-02T08:21:38;10.60;99.90
6252;DHT22;3159;52.414;9.784;2024-03-02T08:24:06;10.80;99.90
6252;DHT22;3159;52.414;9.784;2024-03-02T08:26:33;11.00;99.90
6252;DHT22;3159;52.414;9.784;2024-03-02T08:29:00;11.00;99.90
6252;DHT22;3159;52.414;9.784;2024-03-02T08:31:29;11.10;99.90
6252;DHT22;3159;52.414;9.784;2024-03-02T08:33:56;11.20;99.90
6252;DHT22;3159;52.414;9.784;2024-03-02T08:36:25;11.20;99.90
6252;DHT22;3159;52.414;9.784;2024-03-02T08:38:52;11.40;99.90
6252;DHT22;3159;52.414;9.784;2024-03-02T08:41:19;11.60;99.90
6252;DHT22;3159;52.414;9.784;2024-03-02T08:43:46;12.00;99.90
6252;DHT22;3159;52.414;9.784;2024-03-02T08:46:13;11.80;99.90
6252;DHT22;3159;52.414;9.784;2024-03-02T08:48:40;11.90;99.90
6252;DHT22;3159;52.414;9.784;2024-03-02T08:51:07;11.90;99.90
6252;DHT22;3159;52.414;9.784;2024-03-02T08:53:37;12.30;99.90
6252;DHT22;3159;52.414;9.784;2024-03-02T08:56:04;12.30;99.90
6252;DHT22;3159;52.414;9.784;2024-03-02T08:58:31;11.70;99.90
6252;DHT22;3159;52.414;9.784;2024-03-02T09:00:58;12.20;99.90
6252;DHT22;3159;52.414;9.784;2024-03-02T09:03:25;11.60;99.90
6252;DHT22;3159;52.414;9.784;2024-03-02T09:05:52;12.10;99.90
6252;DHT22;3159;52.414;9.784;2024-03-02T09:08:19;12.50;99.90
6252;DHT22;3159;52.414;9.784;2024-03-02T09:10:47;12.50;99.90
6252;DHT22;3159;52.414;9.784;2024-03-02T09:13:14;12.80;99.90
6252;DHT22;3159;52.414;9.784;2024-03-02T09:15:41;12.80;99.90
6252;DHT22;3159;52.414;9.784;2024-03-02T09:18:08;13.20;99.90
6252;DHT22;3159;52.414;9.784;2024-03-02T09:20:35;13.00;99.90
6252;DHT22;3159;52.414;9.784;2024-03-02T09:23:02;12.80;99.90
6252;DHT22;3159;52.414;9.784;2024-03-02T09:25:29;12.20;99.90
6252;DHT22;3159;52.414;9.784;2024-03-02T09:27:57;12.60;99.90
6252;DHT22;3159;52.414;9.784;2024-03-02T09:30:24;12.20;99.90
6252;DHT22;3159;52.414;9.784;2024-03-02T09:32:50;12.20;99.90
6252;DHT22;3159;52.414;9.784;2024-03-02T09:35:17;12.50;99.90
6252;DHT22;3159;52.414;9.784;2024-03-02T09:37:44;12.60;99.90
6252;DHT22;3159;52.414;9.784;2024-03-02T09:40:11;12.90;99.90
6252;DHT22;3159;52.414;9.784;2024-03-02T09:42:39;12.40;99.90
6252;DHT22;3159;52.414;9.784;2024-03-02T09:45:09;12.60;99.90
6252;DHT22;3159;52.414;9.784;2024-03-02T09:47:35;12.70;99.90
6252;DHT22;3159;52.414;9.784;2024-03-02T09:50:02;12.60;99.90
6252;DHT22;3159;52.414;9.784;2024-03-02T09:52:30;12.50;99.90
6252;DHT22;3159;52.414;9.784;2024-03-02T09:54:57;12.20;99.90
6252;DHT22;3159;52.414;9.784;2024-03-02T09:57:24;12.10;99.90
6252;DHT22;3159;52.414;9.784;2024-03-02T09:59:51;12.10;99.90
6252;DHT22;3159;52.414;9.784;2024-03-02T10:02:19;11.80;99.90
6252;DHT22;3159;52.414;9.784;2024-03-02T10:04:49;12.00;99.90
6252;DHT22;3159;52.414;9.784;2024-03-02T10:07:17;12.20;99.90
6252;DHT22;3159;52.414;9.784;2024-03-02T10:09:44;12.30;99.90
6252;DHT22;3159;52.414;9.784;2024-03-02T10:12:14;12.00;99.90
6252;DHT22;3159;52.414;9.784;2024-03-02T10:14:42;12.00;99.90
6252;DHT22;3159;52.414;9.784;2024-03-02T10:17:10;12.00;99.90
6252;DHT22;3159;52.414;9.784;2024-03-02T10:19:39;12.10;99.90
6252;DHT22;3159;52.414;9.784;2024-03-02T10:22:07;11.80;99.90
6252;DHT22;3159;52.414;9.784;2024-03-02T10:24:38;11.90;99.90
6252;DHT22;3159;52.414;9.784;2024-03-02T10:27:09;12.00;99.90
6252;DHT22;3159;52.414;9.784;2024-03-02T10:29:39;12.30;99.90
6252;DHT22;3159;52.414;9.784;2024-03-02T10:32:08;12.40;99.90
6252;DHT22;3159;52.414;9.784;2024-03-02T10:34:40;12.70;99.90
6252;DHT22;3159;52.414;9.784;2024-03-02T10:37:07;13.10;99.90
6252;DHT22;3159;52.414;9.784;2024-03-02T10:39:34;13.60;99.90
6252;DHT22;3159;52.414;9.784;2024-03-02T10:42:02;13.80;99.90
6252;DHT22;3159;52.414;9.784;2024-03-02T10:44:30;13.70;99.90
6252;DHT22;3159;52.414;9.784;2024-03-02T10:47:00;13.80;99.90
6252;DHT22;3159;52.414;9.784;2024-03-02T10:49:29;13.60;99.90
6252;DHT22;3159;52.414;9.784;2024-03-02T10:51:58;13.70;99.90
6252;DHT22;3159;52.414;9.784;2024-03-02T10:54:26;13.90;99.90
6252;DHT22;3159;52.414;9.784;2024-03-02T10:56:56;14.00;99.90
6252;DHT22;3159;52.414;9.784;2024-03-02T10:59:27;14.00;99.90
6252;DHT22;3159;52.414;9.784;2024-03-02T11:01:57;14.00;99.90
6252;DHT22;3159;52.414;9.784;2024-03-02T11:04:25;13.80;99.90
6252;DHT22;3159;52.414;9.784;2024-03-02T11:06:56;13.80;99.90
6252;DHT22;3159;52.414;9.784;2024-03-02T11:09:28;13.70;99.90
6252;DHT22;3159;52.414;9.784;2024-03-02T11:12:02;13.80;99.90
6252;DHT22;3159;52.414;9.784;2024-03-02T11:14:30;13.60;99.90
6252;DHT22;3159;52.414;9.784;2024-03-02T11:16:59;14.10;99.90
6252;DHT22;3159;52.414;9.784;2024-03-02T11:19:27;13.90;99.90
6252;DHT22;3159;52.414;9.784;2024-03-02T11:21:54;14.20;99.90
6252;DHT22;3159;52.414;9.784;2024-03-02T11:24:36;13.80;99.90
6252;DHT22;3159;52.414;9.784;2024-03-02T11:27:04;13.40;99.90
6252;DHT22;3159;52.414;9.784;2024-03-02T11:29:43;13.30;99.90
6252;DHT22;3159;52.414;9.784;2024-03-02T11:32:21;13.60;99.90
6252;DHT22;3159;52.414;9.784;2024-03-02T11:34:50;13.20;99.90
6252;DHT22;3159;52.414;9.784;2024-03-02T11:37:17;13.10;99.90
6252;DHT22;3159;52.414;9.784;2024-03-02T11:39:49;13.20;99.90
6252;DHT22;3159;52.414;9.784;2024-03-02T11:42:16;12.80;99.90
6252;DHT22;3159;52.414;9.784;2024-03-02T11:44:45;13.00;99.90
6252;DHT22;3159;52.414;9.784;2024-03-02T11:47:14;13.00;99.90
6252;DHT22;3159;52.414;9.784;2024-03-02T11:49:42;13.00;99.90
6252;DHT22;3159;52.414;9.784;2024-03-02T11:52:11;13.20;99.90
6252;DHT22;3159;52.414;9.784;2024-03-02T11:54:39;13.10;99.90
6252;DHT22;3159;52.414;9.784;2024-03-02T11:57:13;13.20;99.90
6252;DHT22;3159;52.414;9.784;2024-03-02T11:59:41;12.90;99.90
6252;DHT22;3159;52.414;9.784;2024-03-02T12:02:15;12.80;99.90
6252;DHT22;3159;52.414;9.784;2024-03-02T12:04:42;12.90;99.90
6252;DHT22;3159;52.414;9.784;2024-03-02T12:07:10;13.30;99.90
6252;DHT22;3159;52.414;9.784;2024-03-02T12:09:37;13.60;99.90
6252;DHT22;3159;52.414;9.784;2024-03-02T12:12:06;13.50;99.90
6252;DHT22;3159;52.414;9.784;2024-03-02T12:14:35;13.50;99.90
6252;DHT22;3159;52.414;9.784;2024-03-02T12:17:03;13.40;99.90
6252;DHT22;3159;52.414;9.784;2024-03-02T12:19:31;13.30;99.90
6252;DHT22;3159;52.414;9.784;2024-03-02T12:21:58;13.40;99.90
6252;DHT22;3159;52.414;9.784;2024-03-02T12:24:27;13.60;99.90
6252;DHT22;3159;52.414;9.784;2024-03-02T12:26:55;13.40;99.90
6252;DHT22;3159;52.414;9.784;2024-03-02T12:29:22;13.40;99.90
6252;DHT22;3159;52.414;9.784;2024-03-02T12:31:52;13.40;99.90
6252;DHT22;3159;52.414;9.784;2024-03-02T12:34:19;13.60;99.90
6252;DHT22;3159;52.414;9.784;2024-03-02T12:36:46;13.70;99.90
6252;DHT22;3159;52.414;9.784;2024-03-02T12:39:15;13.70;99.90
6252;DHT22;3159;52.414;9.784;2024-03-02T12:41:42;13.40;99.90
6252;DHT22;3159;52.414;9.784;2024-03-02T12:44:09;13.60;99.90
6252;DHT22;3159;52.414;9.784;2024-03-02T12:46:36;13.90;99.90
6252;DHT22;3159;52.414;9.784;2024-03-02T12:49:08;13.60;99.90
6252;DHT22;3159;52.414;9.784;2024-03-02T12:51:35;13.70;99.90
6252;DHT22;3159;52.414;9.784;2024-03-02T12:54:02;13.80;99.90
6252;DHT22;3159;52.414;9.784;2024-03-02T12:56:31;14.00;99.90
6252;DHT22;3159;52.414;9.784;2024-03-02T12:58:59;13.80;99.90
6252;DHT22;3159;52.414;9.784;2024-03-02T13:01:26;13.70;99.90
6252;DHT22;3159;52.414;9.784;2024-03-02T13:03:53;13.90;99.90
6252;DHT22;3159;52.414;9.784;2024-03-02T13:06:23;14.40;99.90
6252;DHT22;3159;52.414;9.784;2024-03-02T13:08:53;14.40;99.90
6252;DHT22;3159;52.414;9.784;2024-03-02T13:11:21;14.70;99.90
6252;DHT22;3159;52.414;9.784;2024-03-02T13:13:48;14.50;99.90
6252;DHT22;3159;52.414;9.784;2024-03-02T13:16:15;14.70;99.90
6252;DHT22;3159;52.414;9.784;2024-03-02T13:18:44;15.00;99.90
6252;DHT22;3159;52.414;9.784;2024-03-02T13:21:11;15.20;99.90
6252;DHT22;3159;52.414;9.784;2024-03-02T13:23:39;15.00;99.90
6252;DHT22;3159;52.414;9.784;2024-03-02T13:26:06;15.60;99.90
6252;DHT22;3159;52.414;9.784;2024-03-02T13:28:36;15.10;99.90
6252;DHT22;3159;52.414;9.784;2024-03-02T13:31:03;15.40;99.90
6252;DHT22;3159;52.414;9.784;2024-03-02T13:33:30;15.10;99.90
6252;DHT22;3159;52.414;9.784;2024-03-02T13:35:58;14.90;99.90
6252;DHT22;3159;52.414;9.784;2024-03-02T13:38:25;15.40;99.90
6252;DHT22;3159;52.414;9.784;2024-03-02T13:40:53;15.40;99.90
6252;DHT22;3159;52.414;9.784;2024-03-02T13:43:20;15.50;99.90
6252;DHT22;3159;52.414;9.784;2024-03-02T13:45:49;15.60;99.90
6252;DHT22;3159;52.414;9.784;2024-03-02T13:48:17;15.10;99.90
6252;DHT22;3159;52.414;9.784;2024-03-02T13:50:44;15.50;99.90
6252;DHT22;3159;52.414;9.784;2024-03-02T13:53:11;15.40;99.90
6252;DHT22;3159;52.414;9.784;2024-03-02T13:55:38;15.50;99.90
6252;DHT22;3159;52.414;9.784;2024-03-02T13:58:06;16.40;99.90
6252;DHT22;3159;52.414;9.784;2024-03-02T14:00:33;16.10;99.90
6252;DHT22;3159;52.414;9.784;2024-03-02T14:03:01;15.60;99.90
6252;DHT22;3159;52.414;9.784;2024-03-02T14:05:29;15.90;99.90
6252;DHT22;3159;52.414;9.784;2024-03-02T14:07:55;15.70;99.90
6252;DHT22;3159;52.414;9.784;2024-03-02T14:10:22;15.80;99.90
6252;DHT22;3159;52.414;9.784;2024-03-02T14:12:49;15.80;99.90
6252;DHT22;3159;52.414;9.784;2024-03-02T14:15:17;15.40;99.90
6252;DHT22;3159;52.414;9.784;2024-03-02T14:17:44;15.30;99.90
6252;DHT22;3159;52.414;9.784;2024-03-02T14:20:11;15.20;99.90
6252;DHT22;3159;52.414;9.784;2024-03-02T14:22:39;15.10;99.90
6252;DHT22;3159;52.414;9.784;2024-03-02T14:25:06;15.40;99.90
6252;DHT22;3159;52.414;9.784;2024-03-02T14:27:33;15.10;99.90
6252;DHT22;3159;52.414;9.784;2024-03-02T14:30:01;15.40;99.90
6252;DHT22;3159;52.414;9.784;2024-03-02T14:32:29;15.70;99.90
6252;DHT22;3159;52.414;9.784;2024-03-02T14:34:55;15.40;99.90
6252;DHT22;3159;52.414;9.784;2024-03-02T14:37:22;15.40;99.90
6252;DHT22;3159;52.414;9.784;2024-03-02T14:39:49;15.50;99.90
6252;DHT22;3159;52.414;9.784;2024-03-02T14:42:16;15.20;99.90
6252;DHT22;3159;52.414;9.784;2024-03-02T14:44:43;15.40;99.90
6252;DHT22;3159;52.414;9.784;2024-03-02T14:47:10;15.50;99.90
6252;DHT22;3159;52.414;9.784;2024-03-02T14:49:38;15.60;99.90
6252;DHT22;3159;52.414;9.784;2024-03-02T14:52:06;15.40;99.90
6252;DHT22;3159;52.414;9.784;2024-03-02T14:54:33;15.30;99.90
6252;DHT22;3159;52.414;9.784;2024-03-02T14:57:01;15.60;99.90
6252;DHT22;3159;52.414;9.784;2024-03-02T14:59:28;15.50;99.90
6252;DHT22;3159;52.414;9.784;2024-03-02T15:01:55;15.70;99.90
6252;DHT22;3159;52.414;9.784;2024-03-02T15:04:22;15.40;99.90
6252;DHT22;3159;52.414;9.784;2024-03-02T15:06:50;15.10;99.90
6252;DHT22;3159;52.414;9.784;2024-03-02T15:09:17;15.00;99.90
6252;DHT22;3159;52.414;9.784;2024-03-02T15:11:45;14.90;99.90
6252;DHT22;3159;52.414;9.784;2024-03-02T15:14:12;14.90;99.90
6252;DHT22;3159;52.414;9.784;2024-03-02T15:16:39;14.80;99.90
6252;DHT22;3159;52.414;9.784;2024-03-02T15:19:07;14.60;99.90
6252;DHT22;3159;52.414;9.784;2024-03-02T15:21:34;14.50;99.90
6252;DHT22;3159;52.414;9.784;2024-03-02T15:24:03;14.70;99.90
6252;DHT22;3159;52.414;9.784;2024-03-02T15:26:30;14.80;99.90
6252;DHT22;3159;52.414;9.784;2024-03-02T15:28:57;14.70;99.90
6252;DHT22;3159;52.414;9.784;2024-03-02T15:31:24;14.80;99.90
6252;DHT22;3159;52.414;9.784;2024-03-02T15:33:51;14.80;99.90
6252;DHT22;3159;52.414;9.784;2024-03-02T15:36:19;14.70;99.90
6252;DHT22;3159;52.414;9.784;2024-03-02T15:38:46;14.80;99.90
6252;DHT22;3159;52.414;9.784;2024-03-02T15:41:14;14.90;99.90
6252;DHT22;3159;52.414;9.784;2024-03-02T15:43:40;14.60;99.90
6252;DHT22;3159;52.414;9.784;2024-03-02T15:46:08;14.60;99.90
6252;DHT22;3159;52.414;9.784;2024-03-02T15:48:35;14.40;99.90
6252;DHT22;3159;52.414;9.784;2024-03-02T15:51:02;14.50;99.90
6252;DHT22;3159;52.414;9.784;2024-03-02T15:53:29;14.50;99.90
6252;DHT22;3159;52.414;9.784;2024-03-02T15:55:56;14.50;99.90
6252;DHT22;3159;52.414;9.784;2024-03-02T15:58:24;14.30;99.90
6252;DHT22;3159;52.414;9.784;2024-03-02T16:00:51;14.40;99.90
6252;DHT22;3159;52.414;9.784;2024-03-02T16:03:18;14.40;99.90
6252;DHT22;3159;52.414;9.784;2024-03-02T16:05:45;14.30;99.90
6252;DHT22;3159;52.414;9.784;2024-03-02T16:08:12;14.30;99.90
6252;DHT22;3159;52.414;9.784;2024-03-02T16:10:38;14.20;99.90
6252;DHT22;3159;52.414;9.784;2024-03-02T16:13:05;14.00;99.90
6252;DHT22;3159;52.414;9.784;2024-03-02T16:15:33;14.10;99.90